Time;durP1;ratioP1;P1;durP2;ratioP2;P2;SDS_P1;SDS_P2;PMS_P1;PMS_P2;Temp;Humidity;BMP_temperature;BMP_pressure;BME280_temperature;BME280_humidity;BME280_pressure;Samples;Min_cycle;Max_cycle;Signal;HPM_P1;HPM_P2
2023/02/23 00:03:32;;;;;;;;;;;;;;;19.89;40.78;95272.84;10465131;28;2766;-54
2023/02/23 00:08:34;;;;;;;;;;;;;;;19.87;40.87;95272.34;10479009;28;2695;-54
2023/02/23 00:13:36;;;;;;;;;;;;;;;19.89;40.95;95279.94;10479139;28;2628;-53
2023/02/23 00:18:43;;;;;;;;;;;;;;;19.87;40.61;95271.53;10485230;28;2733;-51
2023/02/23 00:23:48;;;;;;;;;;;;;;;19.87;40.90;95271.53;10476193;28;2946;-52
2023/02/23 00:28:49;;;;;;;;;;;;;;;19.87;41.10;95276.81;10475749;28;2703;-52
2023/02/23 00:33:53;;;;;;;;;;;;;;;19.87;41.26;95279.44;10482551;28;2866;-52
2023/02/23 00:38:55;;;;;;;;;;;;;;;19.87;41.59;95279.44;10484883;28;2703;-51
2023/02/23 00:43:56;;;;;;;;;;;;;;;19.87;41.52;95284.69;10486379;28;2832;-49
2023/02/23 00:48:57;;;;;;;;;;;;;;;19.86;41.57;95283.16;10478817;28;2755;-51
2023/02/23 00:53:59;;;;;;;;;;;;;;;19.86;41.25;95285.78;10467831;28;3258;-54
2023/02/23 00:59:00;;;;;;;;;;;;;;;19.85;41.16;95278.94;10468932;28;1970;-51
2023/02/23 01:04:00;;;;;;;;;;;;;;;19.83;40.95;95278.44;10469585;28;2809;-48
2023/02/23 01:09:04;;;;;;;;;;;;;;;19.83;40.85;95286.31;10477123;28;2051;-53
2023/02/23 01:14:04;;;;;;;;;;;;;;;19.81;40.63;95281.34;10461763;28;2750;-53
2023/02/23 01:19:04;;;;;;;;;;;;;;;19.79;40.70;95280.06;10459018;28;2811;-52
2023/02/23 01:24:05;;;;;;;;;;;;;;;19.80;40.70;95274.53;10475517;28;2771;-50
2023/02/23 01:29:09;;;;;;;;;;;;;;;19.77;40.77;95269.03;10478682;28;2048;-52
2023/02/23 01:34:10;;;;;;;;;;;;;;;19.77;40.28;95276.91;10475067;28;2704;-51
2023/02/23 01:39:12;;;;;;;;;;;;;;;19.75;39.73;95281.69;10474096;28;2721;-51
2023/02/23 01:44:13;;;;;;;;;;;;;;;19.73;39.56;95275.91;10484614;28;2766;-52
2023/02/23 01:49:14;;;;;;;;;;;;;;;19.72;39.44;95279.63;10480756;28;2746;-54
2023/02/23 01:54:17;;;;;;;;;;;;;;;19.70;39.32;95276.47;10479496;28;2066;-52
2023/02/23 01:59:17;;;;;;;;;;;;;;;19.67;39.05;95271.78;10469785;28;2732;-51
2023/02/23 02:04:19;;;;;;;;;;;;;;;19.66;38.98;95265.72;10480978;28;2731;-52
2023/02/23 02:09:27;;;;;;;;;;;;;;;19.65;38.88;95268.63;10451858;28;2016;-50
2023/02/23 02:14:27;;;;;;;;;;;;;;;19.63;38.77;95262.88;10470417;28;1965;-51
2023/02/23 02:19:47;;;;;;;;;;;;;;;19.61;38.65;95254.47;10465190;28;2041;-54
2023/02/23 02:24:53;;;;;;;;;;;;;;;19.59;38.65;95246.09;10468916;28;2807;-54
2023/02/23 02:30:12;;;;;;;;;;;;;;;19.58;38.50;95250.56;10449048;28;2703;-50
2023/02/23 02:35:12;;;;;;;;;;;;;;;19.56;38.21;95249.28;10470982;28;2726;-51
2023/02/23 02:40:15;;;;;;;;;;;;;;;19.56;38.37;95244.03;10462923;28;1964;-52
2023/02/23 02:45:21;;;;;;;;;;;;;;;19.56;38.08;95244.03;10453804;28;2831;-53
2023/02/23 02:50:30;;;;;;;;;;;;;;;19.54;38.17;95244.28;10477715;28;2088;-50
2023/02/23 02:55:35;;;;;;;;;;;;;;;19.52;38.06;95243.78;10452918;28;2867;-52
2023/02/23 04:20:55;;;;;;;;;;;;;;;19.34;36.91;95276.81;10469060;28;2012;-54
2023/02/23 04:25:55;;;;;;;;;;;;;;;19.33;37.30;95280.50;10461747;28;2808;-53
2023/02/23 04:30:55;;;;;;;;;;;;;;;19.31;37.11;95274.72;10458773;28;2711;-48
2023/02/23 04:35:56;;;;;;;;;;;;;;;19.32;37.10;95267.63;10459634;28;2783;-50
2023/02/23 04:40:56;;;;;;;;;;;;;;;19.30;36.96;95267.91;10464902;28;2742;-50
2023/02/23 04:45:57;;;;;;;;;;;;;;;19.30;37.11;95269.72;10460744;28;2772;-53
2023/02/23 04:50:58;;;;;;;;;;;;;;;19.29;36.74;95268.94;10461612;28;2884;-51
2023/02/23 04:55:58;;;;;;;;;;;;;;;19.29;36.92;95278.66;10449052;28;2830;-51
2023/02/23 05:01:05;;;;;;;;;;;;;;;19.27;36.84;95283.41;10449594;28;2240;-52
2023/02/23 05:06:06;;;;;;;;;;;;;;;19.26;36.93;95274.75;10466155;28;2762;-50
2023/02/23 05:11:06;;;;;;;;;;;;;;;19.28;36.69;95283.16;10471797;28;2008;-51
2023/02/23 05:16:06;;;;;;;;;;;;;;;19.32;36.68;95278.91;10464651;28;2047;-53
2023/02/23 05:21:07;;;;;;;;;;;;;;;19.35;36.81;95280.25;10462958;28;1965;-52
2023/02/23 05:26:08;;;;;;;;;;;;;;;19.40;36.78;95277.56;10459995;28;2879;-49
2023/02/23 05:31:09;;;;;;;;;;;;;;;19.43;36.68;95275.16;10465518;28;2686;-47
2023/02/23 05:36:10;;;;;;;;;;;;;;;19.51;36.68;95281.66;10450409;28;2716;-50
2023/02/23 05:41:11;;;;;;;;;;;;;;;19.59;36.46;95285.53;10463668;28;2754;-53
2023/02/23 05:46:16;;;;;;;;;;;;;;;19.63;36.42;95287.31;10462335;28;2735;-50
2023/02/23 05:51:16;;;;;;;;;;;;;;;19.70;36.42;95281.75;10463830;28;2055;-53
2023/02/23 05:56:19;;;;;;;;;;;;;;;19.79;36.32;95285.31;10464262;28;2087;-48
2023/02/23 06:01:20;;;;;;;;;;;;;;;19.85;36.31;95292.09;10460221;28;2735;-52
2023/02/23 06:06:24;;;;;;;;;;;;;;;19.90;36.05;95289.41;10462860;28;2721;-50
2023/02/23 06:11:24;;;;;;;;;;;;;;;19.95;36.24;95291.97;10467050;28;2028;-50
2023/02/23 06:16:25;;;;;;;;;;;;;;;20.02;36.01;95295.84;10459434;28;2782;-50
2023/02/23 06:21:35;;;;;;;;;;;;;;;20.07;35.91;95297.66;10469649;28;2897;-54
2023/02/23 06:26:36;;;;;;;;;;;;;;;20.08;35.83;95304.47;10463126;28;2106;-49
2023/02/23 06:31:37;;;;;;;;;;;;;;;20.13;35.87;95314.94;10469354;28;2038;-52
2023/02/23 06:36:37;;;;;;;;;;;;;;;20.17;35.86;95315.94;10466721;28;3151;-52
2023/02/23 06:41:38;;;;;;;;;;;;;;;20.22;36.00;95323.78;10465849;28;2807;-53
2023/02/23 06:46:38;;;;;;;;;;;;;;;20.25;36.25;95323.25;10463650;28;2762;-50
2023/02/23 06:51:39;;;;;;;;;;;;;;;20.28;36.09;95330.56;10472128;28;2711;-51
2023/02/23 06:56:39;;;;;;;;;;;;;;;20.30;36.01;95330.31;10470422;28;2702;-51
2023/02/23 07:01:43;;;;;;;;;;;;;;;20.31;36.10;95335.28;10462985;28;2080;-50
2023/02/23 07:06:44;;;;;;;;;;;;;;;20.33;36.34;95333.16;10445724;28;2491;-49
2023/02/23 07:11:45;;;;;;;;;;;;;;;20.34;36.20;95333.94;10472498;28;2413;-48
2023/02/23 07:16:45;;;;;;;;;;;;;;;20.33;36.31;95335.78;10467292;28;2452;-49
2023/02/23 07:21:46;;;;;;;;;;;;;;;20.35;36.39;95338.91;10468372;28;2543;-49
2023/02/23 07:26:48;;;;;;;;;;;;;;;20.36;36.43;95337.06;10452505;28;2465;-48
2023/02/23 07:31:49;;;;;;;;;;;;;;;20.39;36.23;95342.56;10464299;28;2035;-48
2023/02/23 07:36:49;;;;;;;;;;;;;;;20.40;36.44;95338.88;10443223;28;2596;-52
2023/02/23 07:41:50;;;;;;;;;;;;;;;20.40;36.46;95341.50;10458911;28;2473;-53
2023/02/23 07:46:51;;;;;;;;;;;;;;;20.43;36.38;95335.66;10467884;28;2540;-50
2023/02/23 07:51:51;;;;;;;;;;;;;;;20.45;36.37;95344.06;10468700;28;2366;-50
2023/02/23 07:57:02;;;;;;;;;;;;;;;20.44;37.03;95350.41;10471653;28;2413;-51
2023/02/23 08:02:02;;;;;;;;;;;;;;;20.50;37.08;95349.28;10458772;28;2303;-51
2023/02/23 08:07:03;;;;;;;;;;;;;;;20.53;37.26;95342.63;10466484;28;2481;-49
2023/02/23 08:12:04;;;;;;;;;;;;;;;20.52;37.07;95352.41;10481304;28;2043;-51
2023/02/23 08:17:05;;;;;;;;;;;;;;;20.52;37.00;95348.97;10485854;28;2433;-52
2023/02/23 08:22:05;;;;;;;;;;;;;;;20.51;37.04;95355.31;10479022;28;2543;-51
2023/02/23 08:27:05;;;;;;;;;;;;;;;20.51;37.06;95360.56;10477390;28;2362;-53
2023/02/23 08:32:06;;;;;;;;;;;;;;;20.48;37.00;95359.31;10479325;28;2394;-53
2023/02/23 08:37:06;;;;;;;;;;;;;;;20.47;36.96;95357.72;10478854;28;2452;-54
2023/02/23 08:42:07;;;;;;;;;;;;;;;20.43;37.25;95351.44;10477863;28;1992;-52
2023/02/23 08:47:08;;;;;;;;;;;;;;;20.40;37.18;95349.41;10482804;28;2059;-51
2023/02/23 08:52:08;;;;;;;;;;;;;;;20.39;37.28;95347.81;10477973;28;2441;-51
2023/02/23 08:57:09;;;;;;;;;;;;;;;20.37;37.21;95349.94;10483121;28;2437;-53
2023/02/23 09:02:12;;;;;;;;;;;;;;;20.34;37.35;95342.59;10479962;28;2444;-51
2023/02/23 09:07:13;;;;;;;;;;;;;;;20.33;37.22;95348.16;10461434;28;2511;-47
2023/02/23 09:12:15;;;;;;;;;;;;;;;20.33;37.36;95345.53;10459121;28;2028;-50
2023/02/23 09:17:16;;;;;;;;;;;;;;;20.31;37.67;95345.03;10477180;28;2481;-52
2023/02/23 09:22:17;;;;;;;;;;;;;;;20.30;37.90;95354.75;10466407;28;2531;-52
2023/02/23 09:27:17;;;;;;;;;;;;;;;20.29;37.76;95353.22;10476128;28;2440;-49
2023/02/23 09:32:18;;;;;;;;;;;;;;;20.27;38.14;95360.59;10478139;28;2857;-54
2023/02/23 09:37:19;;;;;;;;;;;;;;;20.25;38.36;95353.00;10474164;28;2477;-52
2023/02/23 09:42:29;;;;;;;;;;;;;;;20.25;38.63;95357.47;10478035;28;2462;-50
2023/02/23 09:47:40;;;;;;;;;;;;;;;20.26;38.33;95356.38;10459719;28;1974;-48
2023/02/23 09:52:41;;;;;;;;;;;;;;;20.23;38.27;95363.00;10474229;28;2000;-53
2023/02/23 09:57:43;;;;;;;;;;;;;;;20.22;38.39;95363.28;10454262;28;2432;-49
2023/02/23 10:03:04;;;;;;;;;;;;;;;20.20;38.44;95368.81;10475735;28;2530;-52
2023/02/23 10:08:06;;;;;;;;;;;;;;;20.20;38.43;95375.94;10477340;28;2472;-51
2023/02/23 10:13:08;;;;;;;;;;;;;;;20.19;38.49;95367.28;10462911;28;2816;-52
2023/02/23 10:18:14;;;;;;;;;;;;;;;20.17;38.59;95366.72;10478257;28;2548;-51
2023/02/23 10:23:20;;;;;;;;;;;;;;;20.16;38.75;95364.38;10484409;28;2435;-49
2023/02/23 10:28:21;;;;;;;;;;;;;;;20.16;38.66;95364.38;10491997;28;2514;-48
2023/02/23 10:33:31;;;;;;;;;;;;;;;20.17;38.90;95364.06;10469365;28;2109;-50
2023/02/23 10:38:32;;;;;;;;;;;;;;;20.16;38.84;95365.16;10473066;28;2004;-50
2023/02/23 10:43:33;;;;;;;;;;;;;;;20.15;38.97;95363.56;10489818;28;2032;-50
2023/02/23 10:48:38;;;;;;;;;;;;;;;20.14;39.11;95358.59;10487665;28;2433;-51
2023/02/23 10:53:38;;;;;;;;;;;;;;;20.13;39.06;95357.03;10469070;28;2466;-48
2023/02/23 10:58:45;;;;;;;;;;;;;;;20.12;39.16;95366.00;10488200;28;2466;-51
2023/02/23 11:03:47;;;;;;;;;;;;;;;20.10;39.08;95354.97;10484849;28;2394;-52
2023/02/23 11:08:48;;;;;;;;;;;;;;;20.08;38.94;95357.88;10482487;28;2456;-48
2023/02/23 11:13:50;;;;;;;;;;;;;;;20.10;38.87;95354.97;10482056;28;2462;-51
2023/02/23 11:18:53;;;;;;;;;;;;;;;20.07;39.00;95348.41;10470452;28;2037;-49
2023/02/23 11:23:57;;;;;;;;;;;;;;;20.07;39.19;95343.13;10478504;28;2618;-51
2023/02/23 11:28:59;;;;;;;;;;;;;;;20.09;40.26;95338.38;10465938;28;2454;-52
2023/02/23 11:34:02;;;;;;;;;;;;;;;20.13;40.66;95333.38;10482168;28;2446;-50
2023/02/23 11:39:03;;;;;;;;;;;;;;;20.14;41.02;95329.66;10478594;28;2104;-53
2023/02/23 11:44:04;;;;;;;;;;;;;;;20.15;41.03;95321.47;10469203;28;2518;-53
2023/02/23 11:49:05;;;;;;;;;;;;;;;20.19;40.67;95314.63;10476829;28;2434;-51
2023/02/23 11:54:06;;;;;;;;;;;;;;;20.20;40.82;95316.19;10482940;28;2491;-51
2023/02/23 11:59:12;;;;;;;;;;;;;;;20.18;40.72;95314.88;10471801;28;2500;-48
2023/02/23 12:04:22;;;;;;;;;;;;;;;20.16;40.73;95303.84;10462332;28;2509;-46
2023/02/23 12:09:25;;;;;;;;;;;;;;;20.15;40.89;95302.28;10478417;28;1980;-50
2023/02/23 12:14:28;;;;;;;;;;;;;;;20.13;40.74;95301.78;10488282;28;2033;-47
2023/02/23 12:19:39;;;;;;;;;;;;;;;20.11;40.69;95296.78;10478057;28;2046;-46
2023/02/23 12:24:42;;;;;;;;;;;;;;;20.10;40.76;95291.81;10486159;28;2392;-47
2023/02/23 12:29:45;;;;;;;;;;;;;;;20.09;40.66;95285.00;10449315;28;2018;-49
2023/02/23 12:34:46;;;;;;;;;;;;;;;20.09;40.37;95285.75;10479864;28;2426;-49
2023/02/23 12:39:48;;;;;;;;;;;;;;;20.07;40.54;95282.63;10490813;28;2492;-49
2023/02/23 12:44:53;;;;;;;;;;;;;;;20.09;40.71;95282.38;10457668;28;2462;-46
2023/02/23 12:49:56;;;;;;;;;;;;;;;20.07;40.62;95281.88;10480935;28;2437;-49
2023/02/23 12:54:56;;;;;;;;;;;;;;;20.06;40.83;95277.66;10465730;28;2481;-47
2023/02/23 13:00:19;;;;;;;;;;;;;;;20.06;40.88;95280.28;10476117;28;2461;-48
2023/02/23 13:05:21;;;;;;;;;;;;;;;20.06;41.04;95275.00;10468028;28;2428;-49
2023/02/23 13:10:21;;;;;;;;;;;;;;;20.04;40.91;95266.63;10464981;28;2163;-50
2023/02/23 13:15:25;;;;;;;;;;;;;;;20.03;41.01;95265.84;10482124;28;2486;-45
2023/02/23 13:20:32;;;;;;;;;;;;;;;20.03;40.94;95267.69;10462830;28;2454;-47
2023/02/23 13:25:44;;;;;;;;;;;;;;;20.03;40.90;95265.06;10462017;28;2437;-48
2023/02/23 13:30:46;;;;;;;;;;;;;;;20.02;40.89;95266.13;10464335;28;2530;-51
2023/02/23 13:35:47;;;;;;;;;;;;;;;20.01;40.80;95261.94;10479819;28;2004;-48
2023/02/23 13:40:49;;;;;;;;;;;;;;;20.01;40.72;95261.94;10482217;28;2802;-49
2023/02/23 13:45:52;;;;;;;;;;;;;;;20.02;40.31;95259.03;10479933;28;2393;-47
2023/02/23 13:51:07;;;;;;;;;;;;;;;20.01;40.68;95254.81;10464161;28;2449;-49
2023/02/23 13:56:09;;;;;;;;;;;;;;;19.99;40.88;95256.94;10468126;28;2501;-51
2023/02/23 14:01:10;;;;;;;;;;;;;;;19.99;40.84;95245.66;10487840;28;2048;-52
2023/02/23 14:06:13;;;;;;;;;;;;;;;19.97;40.77;95251.16;10487796;28;2095;-52
2023/02/23 14:11:33;;;;;;;;;;;;;;;19.98;40.42;95246.69;10492291;28;2442;-53
2023/02/23 14:16:35;;;;;;;;;;;;;;;19.97;40.45;95242.53;10487960;28;2603;-49
2023/02/23 14:21:40;;;;;;;;;;;;;;;19.96;40.40;95248.84;10488448;28;2941;-47
2023/02/23 14:26:45;;;;;;;;;;;;;;;19.96;40.50;95240.94;10488799;28;1936;-49
2023/02/23 14:31:58;;;;;;;;;;;;;;;19.96;40.62;95243.56;10491740;28;2427;-50
2023/02/23 14:37:05;;;;;;;;;;;;;;;19.99;40.50;95243.03;10487219;28;2612;-49
2023/02/23 14:42:05;;;;;;;;;;;;;;;20.01;40.33;95240.88;10465206;28;2411;-53
2023/02/23 14:47:12;;;;;;;;;;;;;;;20.01;40.23;95230.38;10458469;28;2472;-53
2023/02/23 14:52:23;;;;;;;;;;;;;;;20.03;40.01;95239.53;10463697;28;2444;-52
2023/02/23 14:57:24;;;;;;;;;;;;;;;20.03;39.67;95238.75;10475423;28;2405;-53
2023/02/23 15:02:25;;;;;;;;;;;;;;;20.08;40.21;95236.06;10479366;28;2632;-52
2023/02/23 15:07:53;;;;;;;;;;;;;;;20.08;39.89;95236.84;10481599;28;2566;-52
2023/02/23 15:12:53;;;;;;;;;;;;;;;20.09;39.63;95242.91;10477552;28;2786;-52
2023/02/23 15:17:54;;;;;;;;;;;;;;;20.12;39.60;95244.94;10472249;28;2441;-50
2023/02/23 15:22:56;;;;;;;;;;;;;;;20.13;39.65;95244.66;10472714;28;2553;-52
2023/02/23 15:27:57;;;;;;;;;;;;;;;20.15;39.43;95236.50;10466869;28;2448;-50
2023/02/23 15:33:10;;;;;;;;;;;;;;;20.19;39.41;95232.25;10487368;28;2429;-49
2023/02/23 15:38:31;;;;;;;;;;;;;;;20.13;39.19;95231.50;10488170;28;2417;-50
2023/02/23 15:43:31;;;;;;;;;;;;;;;20.20;39.60;95233.81;10459674;28;2422;-51
2023/02/23 15:48:38;;;;;;;;;;;;;;;20.23;39.36;95233.25;10481489;28;2532;-50
2023/02/23 15:53:39;;;;;;;;;;;;;;;20.25;39.56;95231.94;10485878;28;2432;-48
2023/02/23 15:58:45;;;;;;;;;;;;;;;20.29;39.89;95237.41;10478825;28;2484;-51
2023/02/23 16:03:53;;;;;;;;;;;;;;;20.31;39.70;95230.00;10463381;28;2513;-51
2023/02/23 16:08:58;;;;;;;;;;;;;;;20.33;39.59;95227.88;10453118;28;2471;-50
2023/02/23 16:13:59;;;;;;;;;;;;;;;20.36;39.65;95229.16;10455269;28;2429;-53
2023/02/23 16:19:00;;;;;;;;;;;;;;;20.37;39.54;95228.06;10467480;28;2469;-54
2023/02/23 16:24:04;;;;;;;;;;;;;;;20.39;39.59;95234.63;10474939;28;2525;-52
2023/02/23 16:29:05;;;;;;;;;;;;;;;20.41;39.60;95229.84;10455618;28;2398;-53
2023/02/23 16:34:18;;;;;;;;;;;;;;;20.42;39.74;95234.06;10454338;28;2023;-53
2023/02/23 16:39:18;;;;;;;;;;;;;;;20.46;39.76;95232.44;10471848;28;2439;-54
2023/02/23 16:44:21;;;;;;;;;;;;;;;20.51;40.20;95226.28;10469428;28;2469;-50
2023/02/23 16:49:22;;;;;;;;;;;;;;;20.51;40.47;95242.88;10451816;28;2564;-53
2023/02/23 16:54:24;;;;;;;;;;;;;;;20.54;40.23;95241.53;10464286;28;2172;-48
2023/02/23 16:59:27;;;;;;;;;;;;;;;20.54;40.20;95241.53;10452625;28;2007;-51
2023/02/23 17:04:28;;;;;;;;;;;;;;;20.52;40.13;95238.41;10469932;28;2152;-49
2023/02/23 17:09:28;;;;;;;;;;;;;;;20.42;38.91;95235.91;10471471;28;2091;-55
2023/02/23 17:14:31;;;;;;;;;;;;;;;20.39;39.57;95245.16;10467320;28;2849;-51
2023/02/23 17:19:32;;;;;;;;;;;;;;;20.41;40.17;95250.13;10467259;28;2085;-50
2023/02/23 17:24:32;;;;;;;;;;;;;;;20.43;40.14;95245.34;10448218;28;2515;-50
2023/02/23 17:29:33;;;;;;;;;;;;;;;20.42;40.10;95239.34;10461707;28;2454;-54
2023/02/23 17:34:34;;;;;;;;;;;;;;;20.42;40.18;95243.81;10473276;28;2810;-55
2023/02/23 17:39:36;;;;;;;;;;;;;;;20.41;40.16;95242.22;10462548;28;2479;-53
2023/02/23 17:44:37;;;;;;;;;;;;;;;20.40;39.97;95249.38;10470835;28;2461;-48
2023/02/23 17:49:38;;;;;;;;;;;;;;;20.41;39.86;95253.56;10467621;28;2425;-49
2023/02/23 17:54:38;;;;;;;;;;;;;;;20.43;39.91;95253.25;10463138;28;2598;-51
2023/02/23 17:59:40;;;;;;;;;;;;;;;20.41;39.87;95258.81;10467779;28;2487;-52
2023/02/23 18:04:41;;;;;;;;;;;;;;;20.40;40.01;95252.00;10472762;28;2504;-51
2023/02/23 18:09:42;;;;;;;;;;;;;;;20.41;39.77;95250.91;10468000;28;2367;-52
2023/02/23 18:14:42;;;;;;;;;;;;;;;20.39;40.21;95257.53;10468184;28;2520;-48
2023/02/23 18:19:43;;;;;;;;;;;;;;;20.38;40.30;95256.72;10469516;28;2425;-49
2023/02/23 18:24:44;;;;;;;;;;;;;;;20.40;40.43;95252.00;10473048;28;2394;-52
2023/02/23 18:29:44;;;;;;;;;;;;;;;20.40;40.46;95256.47;10474175;28;2381;-53
2023/02/23 18:34:45;;;;;;;;;;;;;;;20.38;40.54;95248.84;10475580;28;2588;-53
2023/02/23 18:39:46;;;;;;;;;;;;;;;20.37;40.61;95255.19;10475899;28;2491;-53
2023/02/23 18:44:46;;;;;;;;;;;;;;;20.36;40.63;95258.09;10456834;28;2496;-55
2023/02/23 18:49:46;;;;;;;;;;;;;;;20.34;40.55;95249.72;10472025;28;2473;-51
2023/02/23 18:54:47;;;;;;;;;;;;;;;20.33;40.47;95248.91;10477587;28;2576;-52
2023/02/23 18:59:47;;;;;;;;;;;;;;;20.32;40.67;95247.34;10470969;28;1935;-49
2023/02/23 19:04:48;;;;;;;;;;;;;;;20.30;40.52;95248.72;10478581;28;2449;-51
2023/02/23 19:09:50;;;;;;;;;;;;;;;20.30;40.30;95253.97;10475111;28;2426;-54
2023/02/23 19:14:51;;;;;;;;;;;;;;;19.97;38.40;95245.91;10472775;28;2429;-47
2023/02/23 19:19:54;;;;;;;;;;;;;;;19.64;37.74;95246.81;10474768;28;2469;-52
2023/02/23 19:24:54;;;;;;;;;;;;;;;19.78;39.11;95239.06;10492317;28;2611;-51
2023/02/23 19:29:55;;;;;;;;;;;;;;;19.86;40.36;95238.44;10458813;28;2430;-52
2023/02/23 19:34:55;;;;;;;;;;;;;;;19.94;40.96;95245.69;10481860;28;1944;-51
2023/02/23 19:39:56;;;;;;;;;;;;;;;20.02;40.68;95247.69;10484911;28;2478;-51
2023/02/23 19:44:56;;;;;;;;;;;;;;;20.07;40.70;95255.56;10481865;28;1985;-53
2023/02/23 19:49:56;;;;;;;;;;;;;;;20.13;40.66;95244.66;10478533;28;2426;-52
2023/02/23 19:54:57;;;;;;;;;;;;;;;20.20;40.64;95257.50;10481045;28;2464;-48
2023/02/23 19:59:58;;;;;;;;;;;;;;;20.24;40.40;95250.59;10461398;28;2498;-53
2023/02/23 20:04:58;;;;;;;;;;;;;;;20.28;40.45;95259.50;10476804;28;2480;-53
2023/02/23 20:09:58;;;;;;;;;;;;;;;20.31;40.50;95253.69;10483653;28;2020;-52
2023/02/23 20:14:59;;;;;;;;;;;;;;;20.34;40.29;95254.97;10482661;28;2458;-54
2023/02/23 20:19:59;;;;;;;;;;;;;;;20.36;40.21;95253.59;10482786;28;2088;-52
2023/02/23 20:25:01;;;;;;;;;;;;;;;20.40;40.21;95254.63;10473632;28;2433;-51
2023/02/23 20:30:04;;;;;;;;;;;;;;;20.45;40.29;95251.13;10480655;28;2449;-51
2023/02/23 20:35:05;;;;;;;;;;;;;;;20.47;40.09;95247.16;10477511;28;2406;-48
2023/02/23 20:40:14;;;;;;;;;;;;;;;20.47;39.88;95244.50;10483255;28;2007;-46
2023/02/23 20:45:16;;;;;;;;;;;;;;;20.48;39.80;95240.03;10485733;28;2669;-46
2023/02/23 20:50:18;;;;;;;;;;;;;;;20.48;39.76;95240.81;10486116;28;2516;-47
2023/02/23 20:55:19;;;;;;;;;;;;;;;20.46;39.77;95240.34;10484674;28;2013;-48
2023/02/23 21:00:21;;;;;;;;;;;;;;;20.45;39.89;95236.13;10468167;28;2440;-48
2023/02/23 21:05:23;;;;;;;;;;;;;;;20.47;39.91;95238.47;10482906;28;2518;-48
2023/02/23 21:10:23;;;;;;;;;;;;;;;20.45;40.04;95235.31;10488075;28;2486;-46
2023/02/23 21:15:27;;;;;;;;;;;;;;;20.46;40.05;95232.44;10478638;28;2038;-49
2023/02/23 21:20:28;;;;;;;;;;;;;;;20.43;39.97;95222.47;10482350;28;2417;-50
2023/02/23 21:25:28;;;;;;;;;;;;;;;20.42;39.71;95223.53;10484522;28;2417;-48
2023/02/23 21:30:29;;;;;;;;;;;;;;;20.40;39.78;95220.41;10479919;28;2480;-49
2023/02/23 21:35:30;;;;;;;;;;;;;;;20.38;39.58;95217.25;10483643;28;2023;-48
2023/02/23 21:40:30;;;;;;;;;;;;;;;20.38;39.59;95227.03;10483608;28;1949;-51
2023/02/23 21:45:31;;;;;;;;;;;;;;;20.35;39.64;95217.84;10466978;28;2430;-48
2023/02/23 21:50:32;;;;;;;;;;;;;;;20.34;39.31;95221.53;10479963;28;2481;-48
2023/02/23 21:55:32;;;;;;;;;;;;;;;20.33;39.46;95214.72;10471703;28;2494;-49
2023/02/23 22:00:34;;;;;;;;;;;;;;;20.30;39.41;95215.25;10456384;28;2589;-49
2023/02/23 22:05:34;;;;;;;;;;;;;;;20.30;39.21;95212.63;10478589;28;1977;-47
2023/02/23 22:10:35;;;;;;;;;;;;;;;20.26;39.76;95209.78;10474284;28;2413;-52
2023/02/23 22:15:45;;;;;;;;;;;;;;;20.23;39.71;95205.09;10479147;28;2094;-51
2023/02/23 22:20:51;;;;;;;;;;;;;;;20.21;39.60;95203.81;10477173;28;2028;-53
2023/02/23 22:25:53;;;;;;;;;;;;;;;20.19;39.46;95200.66;10473648;28;2735;-54
2023/02/23 22:30:54;;;;;;;;;;;;;;;20.16;39.62;95209.09;10479867;28;2491;-53
2023/02/23 22:35:57;;;;;;;;;;;;;;;20.14;39.34;95203.34;10481290;28;1941;-50
2023/02/23 22:40:58;;;;;;;;;;;;;;;20.11;39.48;95198.66;10474417;28;2409;-52
2023/02/23 22:45:59;;;;;;;;;;;;;;;20.08;39.35;95193.94;10470809;28;2390;-47
2023/02/23 22:50:59;;;;;;;;;;;;;;;20.05;39.24;95189.28;10477051;28;2378;-51
2023/02/23 22:55:59;;;;;;;;;;;;;;;20.03;39.24;95180.88;10479613;28;2441;-54
2023/02/23 23:01:02;;;;;;;;;;;;;;;20.01;39.50;95188.28;10473440;28;2437;-52
2023/02/23 23:06:03;;;;;;;;;;;;;;;20.00;39.23;95184.06;10450738;28;2471;-52
2023/02/23 23:11:08;;;;;;;;;;;;;;;19.96;39.39;95173.34;10454572;28;2479;-49
2023/02/23 23:16:11;;;;;;;;;;;;;;;19.95;39.45;95166.50;10457919;28;2486;-53
2023/02/23 23:21:12;;;;;;;;;;;;;;;19.93;39.24;95162.56;10473126;28;2553;-49
2023/02/23 23:26:13;;;;;;;;;;;;;;;19.91;39.20;95156.81;10471987;28;2414;-53
2023/02/23 23:31:17;;;;;;;;;;;;;;;19.90;39.13;95155.25;10459523;28;2418;-52
2023/02/23 23:36:19;;;;;;;;;;;;;;;19.88;39.13;95149.50;10483704;28;2560;-53
2023/02/23 23:41:19;;;;;;;;;;;;;;;19.86;39.19;95149.78;10472075;28;2580;-50
2023/02/23 23:46:21;;;;;;;;;;;;;;;19.86;38.98;95149.00;10476113;28;2499;-50
2023/02/23 23:51:26;;;;;;;;;;;;;;;19.83;39.02;95144.31;10482249;28;2479;-52
2023/02/23 23:56:29;;;;;;;;;;;;;;;19.81;39.21;95147.22;10471529;28;2464;-49
